createdAt,value
2019-02-15T00:02:54.272Z,73.40
2019-02-15T00:05:38.816Z,74.30
2019-02-15T00:08:23.582Z,74.70
2019-02-15T00:11:08.634Z,73.70
2019-02-15T00:13:53.732Z,73.00
2019-02-15T00:16:47.514Z,73.40
2019-02-15T00:22:32.980Z,74.70
2019-02-15T00:25:17.766Z,75.10
2019-02-15T00:28:02.899Z,74.90
2019-02-15T00:30:48.110Z,74.60
2019-02-15T00:33:41.766Z,74.70
2019-02-15T00:36:26.497Z,74.50
2019-02-15T00:39:11.405Z,74.20
2019-02-15T00:42:07.782Z,74.00
2019-02-15T00:44:52.127Z,74.10
2019-02-15T00:51:10.237Z,74.40
2019-02-15T00:54:06.250Z,74.90
2019-02-15T00:57:12.888Z,75.40
2019-02-15T01:00:21.223Z,75.50
2019-02-15T01:10:22.308Z,76.10
2019-02-15T01:13:12.861Z,76.10
2019-02-15T01:16:17.199Z,76.40
2019-02-15T01:19:01.505Z,76.40
2019-02-15T01:21:55.459Z,76.30
2019-02-15T01:24:49.335Z,75.40
2019-02-15T01:41:20.567Z,77.80
2019-02-15T01:44:11.264Z,78.20
2019-02-15T01:47:16.724Z,77.10
2019-02-15T01:50:10.885Z,76.30
2019-02-15T01:53:04.276Z,75.10
2019-02-15T01:55:48.836Z,74.20
2019-02-15T01:58:33.758Z,74.20
2019-02-15T02:01:22.435Z,74.40
2019-02-15T02:04:15.912Z,75.20
2019-02-15T02:07:00.604Z,75.50
2019-02-15T02:09:45.151Z,74.60
2019-02-15T02:12:29.656Z,74.10
2019-02-15T02:15:14.413Z,73.90
2019-02-15T02:17:58.707Z,74.30
2019-02-15T02:20:51.856Z,75.10
2019-02-15T02:23:36.708Z,75.50
2019-02-15T02:26:21.166Z,75.50
2019-02-15T02:29:14.496Z,75.90
2019-02-15T02:31:59.166Z,76.00
2019-02-15T02:34:43.415Z,75.80
2019-02-15T02:37:27.721Z,75.90
2019-02-15T02:40:21.420Z,76.50
2019-02-15T02:43:05.978Z,77.50
2019-02-15T02:45:50.567Z,77.00
2019-02-15T02:48:35.575Z,77.10
2019-02-15T02:51:20.248Z,77.00
2019-02-15T02:54:04.793Z,77.00
2019-02-15T02:56:49.144Z,77.50
2019-02-15T02:59:34.752Z,78.20
2019-02-15T03:02:19.679Z,78.90
2019-02-15T03:05:04.039Z,79.30
2019-02-15T03:07:49.308Z,78.90
2019-02-15T03:10:34.072Z,77.80
2019-02-15T03:13:18.260Z,77.00
2019-02-15T03:16:02.833Z,76.30
2019-02-15T03:18:56.257Z,77.00
2019-02-15T03:21:40.807Z,78.10
2019-02-15T03:24:25.544Z,79.10
2019-02-15T03:27:10.059Z,79.30
2019-02-15T03:29:54.877Z,78.50
2019-02-15T03:32:39.265Z,78.10
2019-02-15T03:35:33.288Z,78.10
2019-02-15T03:39:00.003Z,78.00
2019-02-15T03:41:44.725Z,78.50
2019-02-15T03:44:29.757Z,79.30
2019-02-15T03:47:20.567Z,79.40
2019-02-15T03:50:05.133Z,79.60
2019-02-15T03:52:49.817Z,79.80
2019-02-15T03:55:35.285Z,79.70
2019-02-15T03:58:20.260Z,79.60
2019-02-15T04:01:14.098Z,79.30
2019-02-15T04:03:59.777Z,79.30
2019-02-15T04:06:44.031Z,79.80
2019-02-15T04:09:37.768Z,80.70
2019-02-15T04:12:22.333Z,82.00
2019-02-15T04:15:06.548Z,82.50
2019-02-15T04:17:50.975Z,82.70
2019-02-15T04:20:44.325Z,82.60
2019-02-15T04:23:29.629Z,82.50
2019-02-15T04:26:14.379Z,81.60
2019-02-15T04:28:58.991Z,81.90
2019-02-15T04:31:44.014Z,82.10
2019-02-15T04:34:28.565Z,82.10
2019-02-15T04:37:12.912Z,82.10
2019-02-15T04:39:57.273Z,82.10
2019-02-15T04:42:50.796Z,82.50
2019-02-15T04:45:35.249Z,82.90
2019-02-15T04:48:19.547Z,83.20
2019-02-15T04:51:04.680Z,83.40
2019-02-15T04:53:49.537Z,83.40
2019-02-15T04:56:34.243Z,83.70
2019-02-15T04:59:19.333Z,83.40
2019-02-15T05:02:04.128Z,83.40
2019-02-15T05:04:58.469Z,83.40
2019-02-15T05:07:43.000Z,83.30
2019-02-15T05:10:27.932Z,83.40
2019-02-15T05:13:12.923Z,83.40
2019-02-15T05:15:57.845Z,83.40
2019-02-15T05:18:42.596Z,83.60
2019-02-15T05:21:29.120Z,83.60
2019-02-15T05:24:23.051Z,83.60
2019-02-15T05:27:07.925Z,84.70
2019-02-15T05:29:52.472Z,85.20
2019-02-15T05:32:37.240Z,85.60
2019-02-15T05:35:21.689Z,85.40
2019-02-15T05:38:06.420Z,85.70
2019-02-15T05:40:51.085Z,85.60
2019-02-15T05:43:36.264Z,84.20
2019-02-15T05:46:20.738Z,83.00
2019-02-15T05:49:05.486Z,82.10
2019-02-15T05:51:50.052Z,82.10
2019-02-15T05:54:43.285Z,82.70
2019-02-15T05:57:27.829Z,82.90
2019-02-15T06:00:12.603Z,83.40
2019-02-15T06:02:57.792Z,83.50
2019-02-15T06:05:42.412Z,83.80
2019-02-15T06:08:27.232Z,84.10
2019-02-15T06:11:11.904Z,84.30
2019-02-15T06:13:57.114Z,84.70
2019-02-15T06:16:42.374Z,84.10
2019-02-15T06:19:35.981Z,83.30
2019-02-15T06:22:20.685Z,82.60
2019-02-15T06:25:05.471Z,82.00
2019-02-15T06:27:50.505Z,81.70
2019-02-15T06:30:35.012Z,81.90
2019-02-15T06:33:19.708Z,82.00
2019-02-15T06:36:04.476Z,82.40
2019-02-15T06:38:49.009Z,82.50
2019-02-15T06:41:33.421Z,82.70
2019-02-15T06:44:26.769Z,82.60
2019-02-15T06:47:11.559Z,82.40
2019-02-15T06:49:56.756Z,82.30
2019-02-15T06:52:50.766Z,82.30
2019-02-15T06:55:35.544Z,82.70
2019-02-15T06:58:20.418Z,83.20
2019-02-15T07:04:26.077Z,83.60
2019-02-15T07:07:10.810Z,83.70
2019-02-15T07:09:55.812Z,83.60
2019-02-15T07:12:40.765Z,83.60
2019-02-15T07:15:34.452Z,83.40
2019-02-15T07:18:19.328Z,82.40
2019-02-15T07:21:04.396Z,81.30
2019-02-15T07:23:49.125Z,81.30
2019-02-15T07:26:34.239Z,81.40
2019-02-15T07:29:28.730Z,81.40
2019-02-15T07:32:13.377Z,81.40
2019-02-15T07:35:07.763Z,80.80
2019-02-15T07:37:52.867Z,80.50
2019-02-15T07:40:37.243Z,80.00
2019-02-15T07:43:21.683Z,80.30
2019-02-15T07:46:15.026Z,80.50
2019-02-15T07:48:59.748Z,80.40
2019-02-15T07:51:44.182Z,80.20
2019-02-15T07:54:28.715Z,79.90
2019-02-15T07:57:21.996Z,78.80
2019-02-15T08:00:06.744Z,77.90
2019-02-15T08:02:51.490Z,77.40
2019-02-15T08:05:36.793Z,77.60
2019-02-15T08:08:30.344Z,77.30
2019-02-15T08:11:15.096Z,76.90
2019-02-15T08:14:00.198Z,77.10
2019-02-15T08:16:44.769Z,76.40
2019-02-15T08:19:30.187Z,76.30
2019-02-15T08:22:23.937Z,76.50
2019-02-15T08:25:08.821Z,76.60
2019-02-15T08:27:54.712Z,75.60
2019-02-15T08:30:39.612Z,74.30
2019-02-15T08:33:24.715Z,73.10
2019-02-15T08:36:08.875Z,72.00
2019-02-15T08:38:54.176Z,71.30
2019-02-15T08:41:39.288Z,70.80
2019-02-15T08:44:24.223Z,70.10
2019-02-15T08:47:18.252Z,69.20
2019-02-15T08:50:12.330Z,67.80
2019-02-15T08:53:06.184Z,66.80
2019-02-15T08:55:50.392Z,65.80
2019-02-15T08:58:34.801Z,64.60
2019-02-15T09:01:28.292Z,63.40
2019-02-15T09:04:13.061Z,63.20
2019-02-15T09:06:57.896Z,61.50
2019-02-15T09:09:42.712Z,61.00
2019-02-15T09:12:27.242Z,60.70
2019-02-15T09:15:12.123Z,59.70
2019-02-15T09:17:57.124Z,58.70
2019-02-15T09:20:41.909Z,58.40
2019-02-15T09:23:26.740Z,57.60
2019-02-15T09:26:18.013Z,57.10
2019-02-15T09:29:00.768Z,56.80
2019-02-15T09:31:55.460Z,56.20
2019-02-15T09:34:49.612Z,56.00
2019-02-15T09:37:44.255Z,55.60
2019-02-15T09:40:37.408Z,54.40
2019-02-15T09:43:21.960Z,53.90
2019-02-15T09:46:06.554Z,53.30
2019-02-15T09:48:51.335Z,53.10
2019-02-15T09:51:44.804Z,52.70
2019-02-15T09:54:29.156Z,52.00
2019-02-15T09:57:13.631Z,51.00
2019-02-15T09:59:58.739Z,50.10
2019-02-15T10:02:43.775Z,50.10
2019-02-15T10:05:28.680Z,49.50
2019-02-15T10:08:13.240Z,49.40
2019-02-15T10:10:56.695Z,48.70
2019-02-15T10:13:48.827Z,47.90
2019-02-15T10:16:33.625Z,48.00
2019-02-15T10:19:22.392Z,47.60
2019-02-15T10:22:05.109Z,46.70
2019-02-15T10:24:50.073Z,46.30
2019-02-15T10:27:35.277Z,45.60
2019-02-15T10:30:19.767Z,45.10
2019-02-15T10:33:04.544Z,44.60
2019-02-15T10:35:49.114Z,43.70
2019-02-15T10:38:43.661Z,41.40
2019-02-15T10:41:28.348Z,40.60
2019-02-15T10:44:13.165Z,39.70
2019-02-15T10:46:58.370Z,38.60
2019-02-15T10:49:52.132Z,37.90
2019-02-15T10:52:36.424Z,37.20
2019-02-15T10:55:21.265Z,36.10
2019-02-15T10:58:06.528Z,35.50
2019-02-15T11:00:51.185Z,34.50
2019-02-15T11:03:36.740Z,33.30
2019-02-15T11:06:30.386Z,32.60
2019-02-15T11:09:14.916Z,32.30
2019-02-15T11:11:59.812Z,31.60
2019-02-15T11:14:44.603Z,31.10
2019-02-15T11:17:29.853Z,30.80
2019-02-15T11:20:23.949Z,30.40
2019-02-15T11:23:17.840Z,30.20
2019-02-15T11:26:02.288Z,29.60
2019-02-15T11:28:47.136Z,29.70
2019-02-15T11:31:32.027Z,29.70
2019-02-15T11:34:16.673Z,30.00
2019-02-15T11:37:01.300Z,29.20
2019-02-15T11:39:45.825Z,28.80
2019-02-15T11:42:30.516Z,28.50
2019-02-15T11:45:15.760Z,28.70
2019-02-15T11:48:00.564Z,27.70
2019-02-15T11:50:45.048Z,28.50
2019-02-15T11:53:29.999Z,28.10
2019-02-15T11:56:15.117Z,28.10
2019-02-15T11:58:59.596Z,27.50
2019-02-15T12:01:43.924Z,26.80
2019-02-15T12:04:37.804Z,26.90
2019-02-15T12:07:31.649Z,27.20
2019-02-15T12:10:16.580Z,26.80
2019-02-15T12:13:01.242Z,26.20
2019-02-15T12:15:46.040Z,26.40
2019-02-15T12:18:30.711Z,25.60
2019-02-15T12:21:15.520Z,25.10
2019-02-15T12:24:00.092Z,26.00
2019-02-15T12:26:44.518Z,25.20
2019-02-15T12:29:30.377Z,25.30
2019-02-15T12:32:23.920Z,25.10
2019-02-15T12:35:08.729Z,24.30
2019-02-15T12:37:53.395Z,23.90
2019-02-15T12:40:38.683Z,23.60
2019-02-15T12:43:23.871Z,23.70
2019-02-15T12:46:17.499Z,24.30
2019-02-15T12:49:01.924Z,23.70
2019-02-15T12:51:46.962Z,23.20
2019-02-15T12:54:31.475Z,22.90
2019-02-15T12:57:16.083Z,23.60
2019-02-15T13:00:00.829Z,23.50
2019-02-15T13:02:45.567Z,23.90
2019-02-15T13:05:30.225Z,24.00
2019-02-15T13:08:23.575Z,24.50
2019-02-15T13:11:08.056Z,25.30
2019-02-15T13:13:52.867Z,25.10
2019-02-15T13:16:37.703Z,25.40
2019-02-15T13:19:22.621Z,25.40
2019-02-15T13:22:06.785Z,26.00
2019-02-15T13:24:51.688Z,25.60
2019-02-15T13:27:36.733Z,26.00
2019-02-15T13:30:21.728Z,26.80
2019-02-15T13:33:06.453Z,27.00
2019-02-15T13:35:51.276Z,27.00
2019-02-15T13:38:35.796Z,27.20
2019-02-15T13:41:20.361Z,27.50
2019-02-15T13:44:13.920Z,27.40
2019-02-15T13:46:58.040Z,28.00
2019-02-15T13:49:42.943Z,27.30
2019-02-15T13:52:27.717Z,27.40
2019-02-15T13:55:12.715Z,27.90
2019-02-15T13:57:57.392Z,28.00
2019-02-15T14:00:41.896Z,27.90
2019-02-15T14:03:26.994Z,28.30
2019-02-15T14:06:11.092Z,28.30
2019-02-15T14:09:05.404Z,27.80
2019-02-15T14:12:00.180Z,27.90
2019-02-15T14:14:45.012Z,27.80
2019-02-15T14:17:29.703Z,28.20
2019-02-15T14:20:14.136Z,28.30
2019-02-15T14:22:58.922Z,28.00
2019-02-15T14:25:43.822Z,28.50
2019-02-15T14:28:28.693Z,28.50
2019-02-15T14:31:13.430Z,28.50
2019-02-15T14:33:58.333Z,28.30
2019-02-15T14:36:42.673Z,27.80
2019-02-15T14:39:35.978Z,27.90
2019-02-15T14:42:21.368Z,28.50
2019-02-15T14:45:14.956Z,28.00
2019-02-15T14:47:59.528Z,28.00
2019-02-15T14:50:44.531Z,28.20
2019-02-15T14:53:29.072Z,27.80
2019-02-15T14:56:13.717Z,27.40
2019-02-15T14:58:58.400Z,28.20
2019-02-15T15:01:43.509Z,27.30
2019-02-15T15:04:28.212Z,27.30
2019-02-15T15:07:12.780Z,27.10
2019-02-15T15:09:59.047Z,26.40
2019-02-15T15:12:54.069Z,25.80
2019-02-15T15:15:47.844Z,25.50
2019-02-15T15:18:32.347Z,25.20
2019-02-15T15:21:17.235Z,24.80
2019-02-15T15:24:01.891Z,24.00
2019-02-15T15:26:46.707Z,23.80
2019-02-15T15:29:31.929Z,23.90
2019-02-15T15:32:17.369Z,23.10
2019-02-15T15:35:11.026Z,23.00
2019-02-15T15:37:55.893Z,22.90
2019-02-15T15:40:49.824Z,23.20
2019-02-15T15:43:34.496Z,23.60
2019-02-15T15:46:19.347Z,23.40
2019-02-15T15:49:04.549Z,24.10
2019-02-15T15:51:58.200Z,24.30
2019-02-15T15:54:42.924Z,24.90
2019-02-15T15:57:27.628Z,25.10
2019-02-15T16:00:12.616Z,25.60
2019-02-15T16:02:57.560Z,25.90
2019-02-15T16:05:42.171Z,26.30
2019-02-15T16:08:26.544Z,26.40
2019-02-15T16:11:11.300Z,26.50
2019-02-15T16:13:55.621Z,26.70
2019-02-15T16:16:48.818Z,26.80
2019-02-15T16:19:40.416Z,27.40
2019-02-15T16:22:20.456Z,27.50
2019-02-15T16:25:03.721Z,27.60
2019-02-15T16:27:55.871Z,28.00
2019-02-15T16:30:40.459Z,28.10
2019-02-15T16:33:43.155Z,28.30
2019-02-15T16:36:16.731Z,28.60
2019-02-15T16:38:49.663Z,28.80
2019-02-15T16:41:45.216Z,29.00
2019-02-15T16:44:29.940Z,29.00
2019-02-15T16:47:14.416Z,29.20
2019-02-15T16:49:58.887Z,29.60
2019-02-15T16:52:52.306Z,29.90
2019-02-15T16:55:36.899Z,30.20
2019-02-15T16:58:21.763Z,30.80
2019-02-15T17:01:06.599Z,32.00
2019-02-15T17:03:51.271Z,32.30
2019-02-15T17:06:35.959Z,33.50
2019-02-15T17:09:20.543Z,34.40
2019-02-15T17:12:05.472Z,35.30
2019-02-15T17:14:50.408Z,35.40
2019-02-15T17:17:35.444Z,35.80
2019-02-15T17:20:20.737Z,36.10
2019-02-15T17:23:14.472Z,36.40
2019-02-15T17:25:58.867Z,37.30
2019-02-15T17:28:43.550Z,37.60
2019-02-15T17:31:28.714Z,38.60
2019-02-15T17:34:13.092Z,39.50
2019-02-15T17:36:57.727Z,40.10
2019-02-15T17:39:53.724Z,40.70
2019-02-15T17:42:38.345Z,40.90
2019-02-15T17:45:22.879Z,40.90
2019-02-15T17:48:17.369Z,40.70
2019-02-15T17:51:02.037Z,40.90
2019-02-15T17:53:46.847Z,41.10
2019-02-15T17:56:31.755Z,41.20
2019-02-15T17:59:16.755Z,41.10
2019-02-15T18:02:00.988Z,41.40
2019-02-15T18:04:45.654Z,41.50
2019-02-15T18:07:30.496Z,42.30
2019-02-15T18:10:15.277Z,43.00
2019-02-15T18:12:59.347Z,43.90
2019-02-15T18:15:44.347Z,44.50
2019-02-15T18:18:38.471Z,45.10
2019-02-15T18:21:32.152Z,45.60
2019-02-15T18:24:17.142Z,45.40
2019-02-15T18:27:01.763Z,45.70
2019-02-15T18:29:46.451Z,45.80
2019-02-15T18:32:30.885Z,46.00
2019-02-15T18:35:15.601Z,47.60
2019-02-15T18:38:00.547Z,48.10
2019-02-15T18:40:45.400Z,48.60
2019-02-15T18:43:30.104Z,48.90
2019-02-15T18:46:14.644Z,48.40
2019-02-15T18:49:00.542Z,48.50
2019-02-15T18:51:46.144Z,48.40
2019-02-15T18:54:30.696Z,48.20
2019-02-15T18:57:15.583Z,48.30
2019-02-15T19:00:09.946Z,48.50
2019-02-15T19:02:54.474Z,49.20
2019-02-15T19:05:39.011Z,50.00
2019-02-15T19:08:32.167Z,50.60
2019-02-15T19:11:26.055Z,51.10
2019-02-15T19:14:10.753Z,51.50
2019-02-15T19:16:55.574Z,51.80
2019-02-15T19:19:40.342Z,52.10
2019-02-15T19:22:25.353Z,52.70
2019-02-15T19:25:09.964Z,53.10
2019-02-15T19:27:54.524Z,53.60
2019-02-15T19:30:39.050Z,54.30
2019-02-15T19:33:32.404Z,54.70
2019-02-15T19:36:17.215Z,55.10
2019-02-15T19:39:02.353Z,55.10
2019-02-15T19:41:48.583Z,55.20
2019-02-15T19:44:33.241Z,55.50
2019-02-15T19:47:17.973Z,55.50
2019-02-15T19:50:02.581Z,55.60
2019-02-15T19:52:47.426Z,55.10
2019-02-15T19:55:32.077Z,55.30
2019-02-15T19:58:16.413Z,55.80
2019-02-15T20:01:12.758Z,56.30
2019-02-15T20:03:57.578Z,56.70
2019-02-15T20:06:42.292Z,56.80
2019-02-15T20:09:26.591Z,57.20
2019-02-15T20:12:20.495Z,57.60
2019-02-15T20:15:14.428Z,57.60
2019-02-15T20:18:08.299Z,57.80
2019-02-15T20:20:52.720Z,57.70
2019-02-15T20:23:37.259Z,58.10
2019-02-15T20:26:21.957Z,57.90
2019-02-15T20:29:07.187Z,58.10
2019-02-15T20:31:51.756Z,57.90
2019-02-15T20:34:45.010Z,57.80
2019-02-15T20:37:23.552Z,58.00
2019-02-15T20:40:08.864Z,58.40
2019-02-15T20:43:01.940Z,58.70
2019-02-15T20:45:46.805Z,59.10
2019-02-15T20:48:31.815Z,59.40
2019-02-15T20:51:16.263Z,59.30
2019-02-15T20:54:01.174Z,59.20
2019-02-15T20:56:55.468Z,58.80
2019-02-15T20:59:40.593Z,59.00
2019-02-15T21:02:25.335Z,59.30
2019-02-15T21:05:09.687Z,59.70
2019-02-15T21:07:54.168Z,60.30
2019-02-15T21:10:38.490Z,61.00
2019-02-15T21:13:32.094Z,61.00
2019-02-15T21:16:16.744Z,62.70
2019-02-15T21:19:01.361Z,62.70
2019-02-15T21:21:46.371Z,63.90
2019-02-15T21:24:31.121Z,64.40
2019-02-15T21:27:15.773Z,63.90
2019-02-15T21:30:00.719Z,63.90
2019-02-15T21:32:45.761Z,63.70
2019-02-15T21:35:31.221Z,63.10
2019-02-15T21:38:24.761Z,62.90
2019-02-15T21:41:09.216Z,63.40
2019-02-15T21:43:53.860Z,64.00
2019-02-15T21:46:38.837Z,64.30
2019-02-15T21:49:23.504Z,64.40
2019-02-15T21:52:07.978Z,65.20
2019-02-15T21:54:53.024Z,64.90
2019-02-15T21:57:38.436Z,64.40
2019-02-15T22:00:23.396Z,64.40
2019-02-15T22:03:17.488Z,65.20
2019-02-15T22:06:11.424Z,64.10
2019-02-15T22:08:55.799Z,63.20
2019-02-15T22:11:40.471Z,62.50
2019-02-15T22:14:25.202Z,62.30
2019-02-15T22:17:09.940Z,62.60
2019-02-15T22:19:54.597Z,63.70
2019-02-15T22:22:38.115Z,64.40
2019-02-15T22:25:30.219Z,64.90
2019-02-15T22:28:23.798Z,64.80
2019-02-15T22:31:07.928Z,65.20
2019-02-15T22:33:53.124Z,65.30
2019-02-15T22:36:38.288Z,65.80
2019-02-15T22:39:23.216Z,65.80
2019-02-15T22:42:08.452Z,65.20
2019-02-15T22:45:02.085Z,65.20
2019-02-15T22:47:46.453Z,65.30
2019-02-15T22:50:36.169Z,65.90
2019-02-15T22:53:17.743Z,66.30
2019-02-15T22:56:02.503Z,65.90
2019-02-15T22:58:47.332Z,65.90
2019-02-15T23:01:32.432Z,64.80
2019-02-15T23:04:17.365Z,64.80
2019-02-15T23:07:11.040Z,65.40
2019-02-15T23:09:56.284Z,66.40
2019-02-15T23:12:48.763Z,66.70
2019-02-15T23:15:33.410Z,66.30
2019-02-15T23:18:19.017Z,67.00
2019-02-15T23:21:04.076Z,67.70
2019-02-15T23:23:48.833Z,68.00
2019-02-15T23:26:33.809Z,68.50
2019-02-15T23:29:18.416Z,68.60
2019-02-15T23:32:02.668Z,68.50
2019-02-15T23:34:56.440Z,68.20
2019-02-15T23:37:41.036Z,68.60
2019-02-15T23:40:26.120Z,68.80
2019-02-15T23:43:10.659Z,69.20
2019-02-15T23:45:55.344Z,69.50
2019-02-15T23:48:40.071Z,69.60
2019-02-15T23:51:34.778Z,70.00
2019-02-15T23:54:28.540Z,70.40
2019-02-15T23:57:13.985Z,70.20
